Time;durP1;ratioP1;P1;durP2;ratioP2;P2;SDS_P1;SDS_P2;PMS_P1;PMS_P2;Temp;Humidity;BMP_temperature;BMP_pressure;BME280_temperature;BME280_humidity;BME280_pressure;Samples;Min_cycle;Max_cycle;Signal;HPM_P1;HPM_P2
2023/06/24 00:00:13;;;;;;;4.53;3.95;;;21.10;99.90;;;;;;5052091;28;20250;-72
2023/06/24 00:02:43;;;;;;;5.28;4.78;;;21.00;99.90;;;;;;5051704;28;20293;-72
2023/06/24 00:05:10;;;;;;;5.60;4.55;;;21.00;99.90;;;;;;5052009;28;20233;-73
2023/06/24 00:07:44;;;;;;;5.53;4.45;;;21.10;99.90;;;;;;5051653;28;20234;-72
2023/06/24 00:10:11;;;;;;;5.43;4.53;;;21.00;99.90;;;;;;5051677;28;20227;-72
2023/06/24 00:12:39;;;;;;;5.45;4.55;;;21.00;99.90;;;;;;5048471;28;20288;-71
2023/06/24 00:15:09;;;;;;;5.70;5.05;;;21.00;99.90;;;;;;5037641;28;20207;-72
2023/06/24 00:17:36;;;;;;;4.65;4.10;;;21.00;99.90;;;;;;5051015;28;20218;-70
2023/06/24 00:20:06;;;;;;;5.28;4.78;;;21.00;99.90;;;;;;5051469;28;20636;-72
2023/06/24 00:22:33;;;;;;;5.53;3.97;;;21.00;99.90;;;;;;5051517;28;20290;-72
2023/06/24 00:25:02;;;;;;;5.35;4.30;;;21.00;99.90;;;;;;5051385;28;20234;-71
2023/06/24 00:27:29;;;;;;;5.53;4.43;;;21.00;99.90;;;;;;5051009;28;20273;-70
2023/06/24 00:29:55;;;;;;;4.90;4.25;;;21.00;99.90;;;;;;5051164;28;20269;-70
2023/06/24 00:32:22;;;;;;;6.03;5.32;;;20.80;99.90;;;;;;5051855;28;20245;-72
2023/06/24 00:34:50;;;;;;;7.57;4.57;;;20.80;99.90;;;;;;5051529;28;20210;-72
2023/06/24 00:37:17;;;;;;;6.63;4.35;;;20.80;99.90;;;;;;5051083;28;20670;-73
2023/06/24 00:39:44;;;;;;;5.43;4.65;;;20.70;99.90;;;;;;5050688;28;20213;-73
2023/06/24 00:42:12;;;;;;;5.13;4.63;;;20.80;99.90;;;;;;5051330;28;20591;-73
2023/06/24 00:44:39;;;;;;;6.18;4.50;;;20.80;99.90;;;;;;5050913;28;20659;-71
2023/06/24 00:47:08;;;;;;;4.97;4.57;;;20.80;99.90;;;;;;5051254;28;20238;-71
2023/06/24 00:49:35;;;;;;;5.13;4.72;;;20.70;99.90;;;;;;5051033;28;20202;-72
2023/06/24 00:52:02;;;;;;;4.90;4.47;;;20.70;99.90;;;;;;5050953;28;20299;-71
2023/06/24 00:54:30;;;;;;;6.13;5.57;;;20.80;99.90;;;;;;5050749;28;20229;-70
2023/06/24 00:57:00;;;;;;;5.85;4.93;;;20.70;99.90;;;;;;5051036;28;20211;-72
2023/06/24 00:59:31;;;;;;;5.75;4.78;;;20.80;99.90;;;;;;5050533;28;20636;-72
2023/06/24 01:02:01;;;;;;;5.72;5.22;;;20.70;99.90;;;;;;5050278;28;20230;-72
2023/06/24 01:04:29;;;;;;;5.97;5.38;;;20.80;99.90;;;;;;5049488;28;20592;-72
2023/06/24 01:06:57;;;;;;;5.72;4.63;;;20.80;99.90;;;;;;5050679;28;20242;-72
2023/06/24 01:09:25;;;;;;;5.35;4.85;;;20.80;99.90;;;;;;5050828;28;20698;-72
2023/06/24 01:11:52;;;;;;;5.13;4.60;;;20.70;99.90;;;;;;5051052;28;20269;-72
2023/06/24 01:14:19;;;;;;;4.95;4.10;;;20.60;99.90;;;;;;5050685;28;20214;-72
2023/06/24 01:16:57;;;;;;;6.30;4.97;;;20.70;99.90;;;;;;5050391;28;20674;-72
2023/06/24 01:19:46;;;;;;;6.03;4.15;;;20.60;99.90;;;;;;5050995;28;20332;-72
2023/06/24 01:22:40;;;;;;;6.82;5.47;;;20.60;99.90;;;;;;5050418;28;20209;-72
2023/06/24 01:25:18;;;;;;;5.95;5.32;;;20.60;99.90;;;;;;5050518;28;20217;-72
2023/06/24 01:28:09;;;;;;;6.40;5.25;;;20.60;99.90;;;;;;5050351;28;20263;-72
2023/06/24 01:31:27;;;;;;;6.28;5.10;;;20.50;99.90;;;;;;5038084;28;20764;-72
2023/06/24 01:34:02;;;;;;;5.88;5.28;;;20.50;99.90;;;;;;4967818;28;20698;-72
2023/06/24 01:36:32;;;;;;;6.45;5.47;;;20.50;99.90;;;;;;4969214;28;20267;-72
2023/06/24 01:39:03;;;;;;;8.00;4.68;;;20.40;99.90;;;;;;5021050;28;20672;-71
2023/06/24 01:41:35;;;;;;;4.43;4.00;;;20.40;99.90;;;;;;5050024;28;20211;-71
2023/06/24 01:44:02;;;;;;;6.15;4.00;;;20.40;99.90;;;;;;5050468;28;20245;-72
2023/06/24 01:46:30;;;;;;;5.00;4.57;;;20.30;99.90;;;;;;5050094;28;20207;-72
2023/06/24 01:49:02;;;;;;;5.32;4.70;;;20.30;99.90;;;;;;5050484;28;20260;-71
2023/06/24 01:51:32;;;;;;;5.18;4.07;;;20.30;99.90;;;;;;5049505;28;20270;-72
2023/06/24 01:54:06;;;;;;;5.03;4.00;;;20.20;99.90;;;;;;5050203;28;20246;-71
2023/06/24 01:56:36;;;;;;;4.57;4.05;;;20.20;99.90;;;;;;5050105;28;20206;-71
2023/06/24 01:59:04;;;;;;;5.30;4.40;;;20.10;99.90;;;;;;5050090;28;20238;-71
2023/06/24 02:01:34;;;;;;;4.45;4.05;;;20.00;99.90;;;;;;5049855;28;20210;-72
2023/06/24 02:04:05;;;;;;;4.55;4.10;;;20.10;99.90;;;;;;5049919;28;20682;-71
2023/06/24 02:06:33;;;;;;;5.63;4.82;;;20.10;99.90;;;;;;5049703;28;20294;-71
2023/06/24 02:09:03;;;;;;;5.32;3.90;;;20.10;99.90;;;;;;5050083;28;20207;-72
2023/06/24 02:11:32;;;;;;;6.35;4.38;;;20.00;99.90;;;;;;5049534;28;20329;-71
2023/06/24 02:14:02;;;;;;;6.30;5.38;;;20.00;99.90;;;;;;5050126;28;20242;-71
2023/06/24 02:16:30;;;;;;;5.80;5.25;;;20.00;99.90;;;;;;5049616;28;20245;-72
2023/06/24 02:18:58;;;;;;;6.25;5.75;;;20.00;99.90;;;;;;5049674;28;20282;-71
2023/06/24 02:21:28;;;;;;;6.57;5.95;;;20.00;99.90;;;;;;5050043;28;20243;-72
2023/06/24 02:23:56;;;;;;;6.10;5.55;;;19.90;99.90;;;;;;5050019;28;20214;-71
2023/06/24 02:26:25;;;;;;;6.45;5.85;;;19.90;99.90;;;;;;5051304;28;20234;-72
2023/06/24 02:28:54;;;;;;;8.80;6.32;;;19.90;99.90;;;;;;5054050;28;20206;-72
2023/06/24 02:31:21;;;;;;;7.25;6.25;;;19.90;99.90;;;;;;5053994;28;20644;-72
2023/06/24 02:33:48;;;;;;;7.60;5.53;;;19.90;99.90;;;;;;5053490;28;20237;-72
2023/06/24 02:36:15;;;;;;;6.57;5.90;;;19.80;99.90;;;;;;5053514;28;20694;-71
2023/06/24 02:38:43;;;;;;;8.18;4.88;;;19.80;99.90;;;;;;5053184;28;20245;-72
2023/06/24 02:41:10;;;;;;;5.65;4.70;;;19.70;99.90;;;;;;5053279;28;20744;-71
2023/06/24 02:43:37;;;;;;;12.63;6.35;;;19.70;99.90;;;;;;5053198;28;20207;-72
2023/06/24 02:46:06;;;;;;;6.38;5.35;;;19.70;99.90;;;;;;5053794;28;20203;-71
2023/06/24 02:48:35;;;;;;;6.53;4.68;;;19.60;99.90;;;;;;5052648;28;20589;-71
2023/06/24 02:51:04;;;;;;;6.90;4.22;;;19.60;99.90;;;;;;5053396;28;20270;-71
2023/06/24 02:53:32;;;;;;;6.32;5.70;;;19.50;99.90;;;;;;5052922;28;20242;-71
2023/06/24 02:56:03;;;;;;;5.70;4.68;;;19.40;99.90;;;;;;5053324;28;20238;-71
2023/06/24 02:58:31;;;;;;;4.88;4.15;;;19.40;99.90;;;;;;5052805;28;20215;-71
2023/06/24 03:01:00;;;;;;;5.20;4.47;;;19.50;99.90;;;;;;5053415;28;20207;-71
2023/06/24 03:03:28;;;;;;;5.18;4.72;;;19.40;99.90;;;;;;5052725;28;20206;-71
2023/06/24 03:05:57;;;;;;;4.30;3.90;;;19.50;99.90;;;;;;5053268;28;20253;-71
2023/06/24 03:08:25;;;;;;;5.95;5.35;;;19.50;99.90;;;;;;5052807;28;20592;-71
2023/06/24 03:10:56;;;;;;;4.43;3.92;;;19.40;99.90;;;;;;5053272;28;20239;-71
2023/06/24 03:13:24;;;;;;;6.13;4.88;;;19.40;99.90;;;;;;5053357;28;20234;-71
2023/06/24 03:15:51;;;;;;;4.65;4.25;;;19.30;99.90;;;;;;5053024;28;20203;-71
2023/06/24 03:18:19;;;;;;;4.78;4.38;;;19.40;99.90;;;;;;5052736;28;20230;-71
2023/06/24 03:20:47;;;;;;;4.55;4.15;;;19.40;99.90;;;;;;5052381;28;20755;-71
2023/06/24 03:23:13;;;;;;;4.45;3.83;;;19.40;99.90;;;;;;5052817;28;20222;-70
2023/06/24 03:25:41;;;;;;;5.15;4.65;;;19.50;99.90;;;;;;5052308;28;20234;-70
2023/06/24 03:28:08;;;;;;;5.68;4.18;;;19.50;99.90;;;;;;5053094;28;20213;-71
2023/06/24 03:30:36;;;;;;;4.63;4.20;;;19.40;99.90;;;;;;5051953;28;20261;-71
2023/06/24 03:33:03;;;;;;;5.03;4.40;;;19.30;99.90;;;;;;5052420;28;20257;-72
2023/06/24 03:35:32;;;;;;;4.35;3.95;;;19.20;99.90;;;;;;5052136;28;20246;-72
2023/06/24 03:37:59;;;;;;;4.93;4.20;;;19.30;99.90;;;;;;5052124;28;20226;-72
2023/06/24 03:40:26;;;;;;;5.20;3.95;;;19.30;99.90;;;;;;5052522;28;20235;-72
2023/06/24 03:42:53;;;;;;;5.63;4.15;;;19.30;99.90;;;;;;5052603;28;20207;-72
2023/06/24 03:45:20;;;;;;;5.40;4.30;;;19.30;99.90;;;;;;5052642;28;20206;-71
2023/06/24 03:47:48;;;;;;;5.68;4.32;;;19.30;99.90;;;;;;5051754;28;20686;-72
2023/06/24 03:50:15;;;;;;;7.32;4.78;;;19.30;99.90;;;;;;5052065;28;20238;-72
2023/06/24 03:52:44;;;;;;;5.63;4.60;;;19.30;99.90;;;;;;5051823;28;20288;-72
2023/06/24 03:55:10;;;;;;;5.15;4.47;;;19.20;99.90;;;;;;5051946;28;20203;-72
2023/06/24 03:57:37;;;;;;;6.78;5.28;;;19.20;99.90;;;;;;5051881;28;20256;-72
2023/06/24 04:00:14;;;;;;;4.63;3.75;;;19.10;99.90;;;;;;5052049;28;20778;-72
2023/06/24 04:02:41;;;;;;;4.93;4.45;;;19.00;99.90;;;;;;5051638;28;20218;-72
2023/06/24 04:05:10;;;;;;;3.95;3.55;;;19.10;99.90;;;;;;5052077;28;20211;-72
2023/06/24 04:07:38;;;;;;;6.18;3.90;;;19.10;99.90;;;;;;5051990;28;20345;-71
2023/06/24 04:10:08;;;;;;;5.30;4.10;;;19.10;99.90;;;;;;5052190;28;20202;-72
2023/06/24 04:12:35;;;;;;;4.30;3.85;;;19.10;99.90;;;;;;5038192;28;20653;-72
2023/06/24 04:15:04;;;;;;;5.47;4.90;;;19.10;99.90;;;;;;5051586;28;20667;-72
2023/06/24 04:17:32;;;;;;;5.72;5.15;;;19.10;99.90;;;;;;5051080;28;20562;-72
2023/06/24 04:19:59;;;;;;;5.38;4.88;;;19.00;99.90;;;;;;5051964;28;20238;-72
2023/06/24 04:22:27;;;;;;;5.75;4.53;;;19.00;99.90;;;;;;5051300;28;20209;-72
2023/06/24 04:24:54;;;;;;;4.35;3.92;;;19.00;99.90;;;;;;5051724;28;20238;-71
2023/06/24 04:27:21;;;;;;;8.75;3.97;;;19.10;99.90;;;;;;5051795;28;20260;-72
2023/06/24 04:29:48;;;;;;;5.05;4.55;;;19.10;99.90;;;;;;5050920;28;20234;-71
2023/06/24 04:32:15;;;;;;;9.25;4.38;;;19.00;99.90;;;;;;5051375;28;20238;-73
2023/06/24 04:34:42;;;;;;;5.97;4.28;;;18.90;99.90;;;;;;5051034;28;20663;-73
2023/06/24 04:37:09;;;;;;;6.63;4.70;;;18.90;99.90;;;;;;5051710;28;20268;-71
2023/06/24 04:39:37;;;;;;;5.70;4.25;;;19.00;99.90;;;;;;5050805;28;20250;-70
2023/06/24 04:42:05;;;;;;;5.88;5.00;;;18.90;99.90;;;;;;5051208;28;20238;-71
2023/06/24 04:44:32;;;;;;;5.00;3.90;;;18.90;99.90;;;;;;5050621;28;20217;-71
2023/06/24 04:46:59;;;;;;;6.53;4.82;;;18.90;99.90;;;;;;5051367;28;20230;-70
2023/06/24 04:49:26;;;;;;;5.65;4.13;;;18.90;99.90;;;;;;5050563;28;20238;-70
2023/06/24 04:51:53;;;;;;;6.30;4.35;;;18.90;99.90;;;;;;5051160;28;20237;-71
2023/06/24 04:54:20;;;;;;;4.30;3.90;;;19.00;99.90;;;;;;5051331;28;20211;-72
2023/06/24 04:56:50;;;;;;;4.72;4.25;;;19.00;99.90;;;;;;5050698;28;20264;-72
2023/06/24 04:59:17;;;;;;;7.75;4.15;;;19.10;99.90;;;;;;5050202;28;20292;-72
2023/06/24 05:01:44;;;;;;;7.22;4.82;;;19.00;99.90;;;;;;5050876;28;20384;-71
2023/06/24 05:04:11;;;;;;;5.90;4.65;;;19.00;99.90;;;;;;5050693;28;20238;-73
2023/06/24 05:06:38;;;;;;;4.93;4.43;;;19.00;99.90;;;;;;5050479;28;20249;-72
2023/06/24 05:09:05;;;;;;;7.78;4.53;;;19.10;99.90;;;;;;5050733;28;20243;-70
2023/06/24 05:11:32;;;;;;;4.03;3.55;;;19.10;99.90;;;;;;5050283;28;20269;-70
2023/06/24 05:14:00;;;;;;;3.63;3.33;;;19.10;99.90;;;;;;5050234;28;20651;-71
2023/06/24 05:16:27;;;;;;;4.38;3.33;;;19.20;99.90;;;;;;5050383;28;20257;-70
2023/06/24 05:18:54;;;;;;;5.38;4.20;;;19.20;99.90;;;;;;5051131;28;20207;-70
2023/06/24 05:21:21;;;;;;;6.32;4.00;;;19.10;99.90;;;;;;5050516;28;20300;-70
2023/06/24 05:23:48;;;;;;;4.57;3.60;;;19.20;99.90;;;;;;5050524;28;20246;-72
2023/06/24 05:26:15;;;;;;;5.65;4.72;;;19.30;99.90;;;;;;5050362;28;21005;-71
2023/06/24 05:28:42;;;;;;;5.10;4.53;;;19.30;99.90;;;;;;5050129;28;20210;-72
2023/06/24 05:31:10;;;;;;;5.95;4.15;;;19.40;99.90;;;;;;5050529;28;20234;-73
2023/06/24 05:33:37;;;;;;;4.60;3.83;;;19.40;99.90;;;;;;5050070;28;20239;-72
2023/06/24 05:36:04;;;;;;;4.07;3.58;;;19.50;99.90;;;;;;5050391;28;20705;-70
2023/06/24 05:38:31;;;;;;;5.60;4.28;;;19.50;99.90;;;;;;5048329;28;20238;-72
2023/06/24 05:40:58;;;;;;;5.35;4.30;;;19.50;99.90;;;;;;5042621;28;20713;-72
2023/06/24 05:43:26;;;;;;;5.05;4.05;;;19.50;99.90;;;;;;5050283;28;20238;-72
2023/06/24 05:45:53;;;;;;;4.30;3.90;;;19.60;99.90;;;;;;5050607;28;20241;-71
2023/06/24 05:48:21;;;;;;;7.35;5.57;;;19.60;99.90;;;;;;5049703;28;20203;-71
2023/06/24 05:50:48;;;;;;;4.78;4.18;;;19.60;99.90;;;;;;5050303;28;20246;-72
2023/06/24 05:53:15;;;;;;;8.60;4.75;;;19.70;99.90;;;;;;5049960;28;20266;-70
2023/06/24 05:55:42;;;;;;;6.45;4.20;;;19.80;99.90;;;;;;5049600;28;20242;-73
2023/06/24 05:58:09;;;;;;;4.07;3.67;;;19.80;99.90;;;;;;5050380;28;20206;-71
2023/06/24 06:00:36;;;;;;;4.55;3.65;;;19.90;99.90;;;;;;5051775;28;20234;-71
2023/06/24 06:03:03;;;;;;;4.70;3.95;;;20.00;99.90;;;;;;5054392;28;20242;-72
2023/06/24 06:05:31;;;;;;;5.85;4.57;;;20.00;99.90;;;;;;5052161;28;20234;-73
2023/06/24 06:07:58;;;;;;;4.85;4.07;;;20.10;99.90;;;;;;5054564;28;20226;-73
2023/06/24 06:10:25;;;;;;;4.40;4.00;;;20.20;99.90;;;;;;5053322;28;20241;-69
2023/06/24 06:12:52;;;;;;;5.75;3.60;;;20.30;99.90;;;;;;5053710;28;20227;-72
2023/06/24 06:15:19;;;;;;;5.10;3.88;;;20.40;99.90;;;;;;5052274;28;20679;-68
2023/06/24 06:17:47;;;;;;;4.35;3.55;;;20.50;99.90;;;;;;5054035;28;20238;-68
2023/06/24 06:20:14;;;;;;;5.38;4.20;;;20.50;99.90;;;;;;5053720;28;20206;-68
2023/06/24 06:22:42;;;;;;;4.22;3.83;;;20.60;99.90;;;;;;5053457;28;20249;-72
2023/06/24 06:25:09;;;;;;;4.00;3.53;;;20.70;99.90;;;;;;5053719;28;20246;-72
2023/06/24 06:27:36;;;;;;;4.53;3.80;;;20.60;99.90;;;;;;5052927;28;20645;-69
2023/06/24 06:30:04;;;;;;;4.65;3.70;;;20.70;99.90;;;;;;5053453;28;20238;-69
2023/06/24 06:32:31;;;;;;;4.30;3.78;;;20.80;99.90;;;;;;5050108;28;20756;-69
2023/06/24 06:34:58;;;;;;;5.50;4.70;;;20.90;99.90;;;;;;5051624;28;20214;-69
2023/06/24 06:37:25;;;;;;;4.10;3.70;;;20.90;99.90;;;;;;5039120;28;20211;-70
2023/06/24 06:39:53;;;;;;;4.03;3.63;;;21.00;99.90;;;;;;5040866;28;20238;-72
2023/06/24 06:42:20;;;;;;;4.93;4.07;;;21.10;99.90;;;;;;5051171;28;20206;-71
2023/06/24 06:44:47;;;;;;;4.45;4.05;;;21.10;99.90;;;;;;5043005;28;20237;-72
2023/06/24 06:47:14;;;;;;;5.13;3.97;;;21.20;99.90;;;;;;5052746;28;20250;-69
2023/06/24 06:49:40;;;;;;;3.88;3.47;;;21.30;99.90;;;;;;5047742;28;20218;-70
2023/06/24 06:52:08;;;;;;;4.35;3.15;;;21.40;99.90;;;;;;5051559;28;20363;-74
2023/06/24 06:54:35;;;;;;;4.90;4.05;;;21.60;99.90;;;;;;5046523;28;20225;-68
2023/06/24 06:57:04;;;;;;;6.47;4.55;;;22.50;99.90;;;;;;5052755;28;20253;-70
2023/06/24 06:59:31;;;;;;;4.70;4.30;;;22.30;99.90;;;;;;5052693;28;20289;-69
2023/06/24 07:01:58;;;;;;;4.38;3.97;;;22.50;99.90;;;;;;5052111;28;20218;-69
2023/06/24 07:04:25;;;;;;;4.32;3.80;;;22.60;99.90;;;;;;5051558;28;20276;-72
2023/06/24 07:06:52;;;;;;;5.05;3.92;;;22.50;99.90;;;;;;5053071;28;20203;-67
2023/06/24 07:09:20;;;;;;;5.85;4.50;;;22.50;99.90;;;;;;5041155;28;20253;-68
2023/06/24 07:11:47;;;;;;;4.18;3.78;;;22.30;99.90;;;;;;5051424;28;21156;-68
2023/06/24 07:14:15;;;;;;;4.30;3.22;;;22.40;99.90;;;;;;5051312;28;20246;-70
2023/06/24 07:16:42;;;;;;;5.72;4.63;;;22.40;99.90;;;;;;5050958;28;20292;-69
2023/06/24 07:19:09;;;;;;;4.85;3.85;;;22.50;99.90;;;;;;5049033;28;20244;-69
2023/06/24 07:21:36;;;;;;;4.95;3.92;;;22.50;99.90;;;;;;5050920;28;20246;-70
2023/06/24 07:24:03;;;;;;;4.72;3.33;;;22.50;99.90;;;;;;5052303;28;20246;-70
2023/06/24 07:26:30;;;;;;;5.03;4.50;;;22.70;99.90;;;;;;5051347;28;20671;-72
2023/06/24 07:28:59;;;;;;;3.63;3.33;;;23.20;99.90;;;;;;5052490;28;20213;-69
2023/06/24 07:31:27;;;;;;;3.83;3.42;;;23.20;99.90;;;;;;5052169;28;20203;-68
2023/06/24 07:33:54;;;;;;;5.43;3.67;;;23.20;99.90;;;;;;5052721;28;20234;-69
2023/06/24 07:36:21;;;;;;;6.20;4.32;;;23.20;99.90;;;;;;5051885;28;20207;-70
2023/06/24 07:38:47;;;;;;;4.50;4.10;;;23.20;99.90;;;;;;5051993;28;20234;-70
2023/06/24 07:41:14;;;;;;;5.85;3.88;;;23.20;99.90;;;;;;5052113;28;20246;-71
2023/06/24 07:43:41;;;;;;;4.20;3.90;;;23.40;99.90;;;;;;5052097;28;20238;-70
2023/06/24 07:46:08;;;;;;;4.40;3.30;;;23.50;99.90;;;;;;5052695;28;20238;-69
2023/06/24 07:48:36;;;;;;;5.18;3.78;;;23.80;99.90;;;;;;5048003;28;20245;-73
2023/06/24 07:51:03;;;;;;;4.63;3.75;;;24.10;99.90;;;;;;5050860;28;20725;-69
2023/06/24 07:53:30;;;;;;;4.32;3.83;;;24.10;99.90;;;;;;5047290;28;20734;-75
2023/06/24 07:55:57;;;;;;;3.65;3.35;;;24.30;99.90;;;;;;5040185;28;20296;-75
2023/06/24 07:58:24;;;;;;;3.70;3.40;;;24.70;99.90;;;;;;5051557;28;20285;-72
2023/06/24 08:00:51;;;;;;;5.85;3.75;;;24.50;99.90;;;;;;5039169;28;20238;-70
2023/06/24 08:03:18;;;;;;;3.25;2.95;;;25.20;99.90;;;;;;5050127;28;20602;-70
2023/06/24 08:05:46;;;;;;;5.45;3.60;;;26.40;99.90;;;;;;5049353;28;20203;-70
2023/06/24 08:08:13;;;;;;;3.75;3.40;;;26.00;99.90;;;;;;5049680;28;20239;-70
2023/06/24 08:10:40;;;;;;;2.90;2.65;;;25.50;99.90;;;;;;5049137;28;20284;-69
2023/06/24 08:13:07;;;;;;;3.88;3.53;;;25.30;99.90;;;;;;5050955;28;20270;-69
2023/06/24 08:15:34;;;;;;;4.38;3.65;;;25.20;99.90;;;;;;5049522;28;20234;-70
2023/06/24 08:18:00;;;;;;;4.65;3.70;;;25.00;99.90;;;;;;5050289;28;20264;-70
2023/06/24 08:20:27;;;;;;;4.47;4.07;;;25.00;99.90;;;;;;5051020;28;20210;-69
2023/06/24 08:22:56;;;;;;;6.03;4.93;;;24.90;99.90;;;;;;5051528;28;20239;-69
2023/06/24 08:25:22;;;;;;;3.15;2.88;;;24.90;99.90;;;;;;5050468;28;20238;-70
2023/06/24 08:27:49;;;;;;;3.53;3.00;;;24.90;99.90;;;;;;5047720;28;20333;-70
2023/06/24 08:30:16;;;;;;;4.35;3.10;;;25.00;99.90;;;;;;5051526;28;20238;-70
2023/06/24 08:32:43;;;;;;;3.45;3.15;;;25.00;99.90;;;;;;5050932;28;20230;-70
2023/06/24 08:35:10;;;;;;;3.65;3.35;;;25.10;99.90;;;;;;5051205;28;20235;-70
2023/06/24 08:37:37;;;;;;;5.57;3.35;;;25.20;99.90;;;;;;5050787;28;20261;-73
2023/06/24 08:40:07;;;;;;;3.45;3.15;;;25.30;99.90;;;;;;5051346;28;20238;-70
2023/06/24 08:42:34;;;;;;;3.60;3.15;;;25.50;99.90;;;;;;5050751;28;20218;-70
2023/06/24 08:45:01;;;;;;;3.85;3.55;;;26.00;99.90;;;;;;5051056;28;20686;-70
2023/06/24 08:47:29;;;;;;;3.45;3.15;;;27.50;99.90;;;;;;5049367;28;20639;-71
2023/06/24 08:50:04;;;;;;;3.88;3.42;;;28.10;99.90;;;;;;5048593;28;20213;-70
2023/06/24 08:52:36;;;;;;;3.47;3.10;;;28.00;99.90;;;;;;5050498;28;20659;-70
2023/06/24 08:55:05;;;;;;;3.40;3.10;;;28.50;99.90;;;;;;5050822;28;20701;-71
2023/06/24 08:57:32;;;;;;;2.97;2.63;;;28.20;99.90;;;;;;5050641;28;20265;-70
2023/06/24 08:59:59;;;;;;;3.83;3.20;;;29.30;99.90;;;;;;5051250;28;20214;-68
2023/06/24 09:02:26;;;;;;;3.90;3.53;;;30.60;99.90;;;;;;5050996;28;20249;-70
2023/06/24 09:04:53;;;;;;;4.88;3.05;;;29.60;99.90;;;;;;5050589;28;20730;-71
2023/06/24 09:07:29;;;;;;;2.88;2.67;;;28.90;99.90;;;;;;5050518;28;21004;-70
2023/06/24 09:09:56;;;;;;;2.75;2.45;;;28.40;99.90;;;;;;5051338;28;20207;-70
2023/06/24 09:12:26;;;;;;;3.97;3.30;;;28.70;99.90;;;;;;5050270;28;20203;-70
2023/06/24 09:14:53;;;;;;;5.03;3.35;;;29.80;99.90;;;;;;5050756;28;20211;-70
2023/06/24 09:17:22;;;;;;;2.75;2.35;;;30.70;99.90;;;;;;5050009;28;20254;-75
2023/06/24 09:19:49;;;;;;;3.70;3.50;;;31.20;99.90;;;;;;5050388;28;20260;-71
2023/06/24 09:22:17;;;;;;;3.72;3.42;;;31.40;99.90;;;;;;5050565;28;20252;-71
2023/06/24 09:24:46;;;;;;;3.60;3.30;;;30.10;99.90;;;;;;5050535;28;20206;-71
2023/06/24 09:27:14;;;;;;;3.42;3.20;;;29.50;99.90;;;;;;5049501;28;20213;-70
2023/06/24 09:29:44;;;;;;;3.17;2.90;;;29.60;99.90;;;;;;5045155;28;20692;-71
2023/06/24 09:32:11;;;;;;;3.10;2.80;;;28.90;99.90;;;;;;5050746;28;20317;-75
2023/06/24 09:34:39;;;;;;;3.22;2.60;;;28.80;99.90;;;;;;5049660;28;20409;-71
2023/06/24 09:37:06;;;;;;;3.53;3.22;;;28.60;99.90;;;;;;5047227;28;20678;-71
2023/06/24 09:39:38;;;;;;;3.33;3.13;;;29.10;99.90;;;;;;5049193;28;20245;-71
2023/06/24 09:42:07;;;;;;;2.80;2.60;;;29.80;99.90;;;;;;5050021;28;20206;-74
2023/06/24 09:44:34;;;;;;;3.90;3.60;;;33.70;99.90;;;;;;5049688;28;20209;-72
2023/06/24 09:47:03;;;;;;;2.83;2.63;;;38.50;99.90;;;;;;5050674;28;20295;-70
2023/06/24 09:49:30;;;;;;;2.97;2.78;;;37.60;99.90;;;;;;5050051;28;20241;-69
2023/06/24 09:51:59;;;;;;;3.13;2.60;;;36.80;99.90;;;;;;5049415;28;20291;-70
2023/06/24 09:54:28;;;;;;;3.33;2.88;;;36.90;99.90;;;;;;5049737;28;20332;-70
2023/06/24 09:56:59;;;;;;;3.40;3.10;;;39.70;99.90;;;;;;5038073;28;20210;-70
2023/06/24 09:59:27;;;;;;;4.05;3.00;;;40.90;99.90;;;;;;5049772;28;20233;-72
2023/06/24 10:01:56;;;;;;;2.92;2.55;;;42.60;99.90;;;;;;5049291;28;20690;-71
2023/06/24 10:04:25;;;;;;;3.22;2.83;;;45.30;99.90;;;;;;5049444;28;20214;-71
2023/06/24 10:06:53;;;;;;;3.22;2.70;;;46.10;99.90;;;;;;5049177;28;20248;-72
2023/06/24 10:09:20;;;;;;;2.58;2.38;;;46.20;99.90;;;;;;5048885;28;20670;-70
2023/06/24 10:11:47;;;;;;;3.38;3.00;;;46.00;99.90;;;;;;5048180;28;20206;-73
2023/06/24 10:14:15;;;;;;;4.25;2.53;;;44.90;99.90;;;;;;5049473;28;20265;-73
2023/06/24 10:16:42;;;;;;;2.85;2.25;;;45.50;99.90;;;;;;5048902;28;20246;-72
2023/06/24 10:19:09;;;;;;;2.33;2.13;;;46.90;99.90;;;;;;5048403;28;20202;-72
2023/06/24 10:21:48;;;;;;;2.70;2.50;;;47.10;99.90;;;;;;5044683;28;20233;-71
2023/06/24 10:24:32;;;;;;;3.50;2.67;;;47.30;99.90;;;;;;5049833;28;20233;-71
2023/06/24 10:27:03;;;;;;;3.90;2.40;;;45.40;99.90;;;;;;5049648;28;20240;-72
2023/06/24 10:29:34;;;;;;;3.33;3.00;;;42.50;99.90;;;;;;5048511;28;20230;-72
2023/06/24 10:32:07;;;;;;;5.93;5.32;;;36.70;99.90;;;;;;5048626;28;20727;-72
2023/06/24 10:34:55;;;;;;;3.15;2.95;;;34.30;99.90;;;;;;5048112;28;20333;-75
2023/06/24 10:37:25;;;;;;;2.70;2.45;;;32.30;99.90;;;;;;5048928;28;20242;-74
2023/06/24 10:39:54;;;;;;;3.78;3.47;;;31.00;99.90;;;;;;5048953;28;20210;-75
2023/06/24 10:42:37;;;;;;;3.10;2.80;;;30.50;99.90;;;;;;5048580;28;20206;-72
2023/06/24 10:45:16;;;;;;;2.45;2.25;;;30.10;99.90;;;;;;5047466;28;20275;-71
2023/06/24 10:47:44;;;;;;;4.43;3.00;;;29.80;99.90;;;;;;5050351;28;20678;-72
2023/06/24 10:50:12;;;;;;;3.00;2.70;;;29.80;99.90;;;;;;5053474;28;20645;-72
2023/06/24 10:52:42;;;;;;;2.83;2.63;;;29.70;99.90;;;;;;5052421;28;20648;-71
2023/06/24 10:55:10;;;;;;;3.47;3.17;;;29.80;99.90;;;;;;5052293;28;20566;-72
2023/06/24 10:57:37;;;;;;;3.40;2.92;;;29.80;99.90;;;;;;5053289;28;20237;-72
2023/06/24 11:00:05;;;;;;;3.35;3.05;;;30.00;99.90;;;;;;5052923;28;20704;-72
2023/06/24 11:02:32;;;;;;;3.00;2.72;;;29.80;99.90;;;;;;5053150;28;20252;-72
2023/06/24 11:05:00;;;;;;;3.67;2.70;;;29.60;99.90;;;;;;5051946;28;20237;-71
2023/06/24 11:07:30;;;;;;;4.03;2.55;;;29.60;99.90;;;;;;5039104;28;20234;-72
2023/06/24 11:10:02;;;;;;;2.70;2.45;;;29.60;99.90;;;;;;5052856;28;20698;-74
2023/06/24 11:12:31;;;;;;;2.85;2.50;;;29.90;99.90;;;;;;5052927;28;20213;-72
2023/06/24 11:14:58;;;;;;;3.85;2.25;;;29.80;99.90;;;;;;5051510;28;20258;-71
2023/06/24 11:17:25;;;;;;;2.75;2.55;;;29.80;99.90;;;;;;5052239;28;20210;-71
2023/06/24 11:19:53;;;;;;;2.60;2.40;;;29.80;99.90;;;;;;5050381;28;20239;-71
2023/06/24 11:22:21;;;;;;;3.13;2.80;;;29.80;99.90;;;;;;5051612;28;20658;-72
2023/06/24 11:24:48;;;;;;;5.38;3.28;;;29.70;99.90;;;;;;5051924;28;20238;-72
2023/06/24 11:27:16;;;;;;;3.15;2.92;;;29.60;99.90;;;;;;5052356;28;20239;-71
2023/06/24 11:29:43;;;;;;;4.97;2.85;;;29.60;99.90;;;;;;5051480;28;20238;-71
2023/06/24 11:32:10;;;;;;;3.13;2.35;;;29.50;99.90;;;;;;5052043;28;20207;-71
2023/06/24 11:34:38;;;;;;;3.08;2.78;;;29.70;99.90;;;;;;5051947;28;20258;-71
2023/06/24 11:37:12;;;;;;;3.17;2.78;;;29.60;99.90;;;;;;5051556;28;20238;-72
2023/06/24 11:39:39;;;;;;;2.47;2.28;;;29.60;99.90;;;;;;5051839;28;20214;-71
2023/06/24 11:42:08;;;;;;;2.80;2.40;;;29.60;99.90;;;;;;5052210;28;20240;-73
2023/06/24 11:44:41;;;;;;;4.47;2.95;;;29.50;99.90;;;;;;5051811;28;20504;-73
2023/06/24 11:47:09;;;;;;;4.85;3.20;;;29.60;99.90;;;;;;5052360;28;20238;-71
2023/06/24 11:49:49;;;;;;;2.40;2.20;;;29.70;99.90;;;;;;5051429;28;20215;-72
2023/06/24 11:52:16;;;;;;;2.50;2.30;;;29.40;99.90;;;;;;5043283;28;20219;-70
2023/06/24 11:54:43;;;;;;;2.30;2.15;;;29.60;99.90;;;;;;5051786;28;20246;-71
2023/06/24 11:57:12;;;;;;;3.17;2.70;;;29.50;99.90;;;;;;5052159;28;20258;-71
2023/06/24 11:59:41;;;;;;;3.17;2.90;;;29.70;99.90;;;;;;5050917;28;20292;-70
2023/06/24 12:02:08;;;;;;;2.88;2.60;;;29.80;99.90;;;;;;5051608;28;20402;-71
2023/06/24 12:04:36;;;;;;;2.53;2.33;;;29.30;99.90;;;;;;5052088;28;20202;-72
2023/06/24 12:07:04;;;;;;;4.07;2.78;;;29.40;99.90;;;;;;5052129;28;20260;-70
2023/06/24 12:09:31;;;;;;;2.78;2.58;;;29.50;99.90;;;;;;5046429;28;20239;-71
2023/06/24 12:11:58;;;;;;;4.55;2.80;;;29.60;99.90;;;;;;5047213;28;20203;-71
2023/06/24 12:14:25;;;;;;;2.45;2.25;;;29.70;99.90;;;;;;5051094;28;20254;-72
2023/06/24 12:16:53;;;;;;;3.15;2.90;;;29.70;99.90;;;;;;5051668;28;20276;-71
2023/06/24 12:19:21;;;;;;;2.83;2.63;;;29.70;99.90;;;;;;5049172;28;20211;-72
2023/06/24 12:21:48;;;;;;;4.45;2.63;;;29.80;99.90;;;;;;5051545;28;20232;-71
2023/06/24 12:24:15;;;;;;;3.50;3.20;;;29.80;99.90;;;;;;5050005;28;20226;-71
2023/06/24 12:26:42;;;;;;;2.97;2.70;;;29.80;99.90;;;;;;5051117;28;20238;-71
2023/06/24 12:29:09;;;;;;;3.72;3.25;;;29.80;99.90;;;;;;5044468;28;20230;-71
2023/06/24 12:31:36;;;;;;;2.50;2.10;;;29.90;99.90;;;;;;5048658;28;20238;-71
2023/06/24 12:34:05;;;;;;;3.85;3.13;;;29.80;99.90;;;;;;5050462;28;20741;-71
2023/06/24 12:36:32;;;;;;;4.07;2.63;;;29.90;99.90;;;;;;5050967;28;20579;-72
2023/06/24 12:38:59;;;;;;;3.20;2.75;;;29.80;99.90;;;;;;5050857;28;20234;-72
2023/06/24 12:41:27;;;;;;;3.35;3.03;;;29.90;99.90;;;;;;5048083;28;20234;-71
2023/06/24 12:43:53;;;;;;;3.28;2.60;;;30.00;99.90;;;;;;5051321;28;20298;-71
2023/06/24 12:46:20;;;;;;;2.63;2.42;;;30.00;99.90;;;;;;5050789;28;20246;-71
2023/06/24 12:48:48;;;;;;;3.45;3.15;;;30.00;99.90;;;;;;5051475;28;20266;-71
2023/06/24 12:51:16;;;;;;;3.00;2.75;;;30.00;99.90;;;;;;5051343;28;20214;-71
2023/06/24 12:53:43;;;;;;;5.50;2.63;;;30.00;99.90;;;;;;5048216;28;20276;-71